createdAt,value
2022-12-09T00:01:15.290Z,8.72
2022-12-09T00:06:15.119Z,8.67
2022-12-09T00:11:12.300Z,8.69
2022-12-09T00:16:11.977Z,8.63
2022-12-09T00:21:13.415Z,8.57
2022-12-09T00:26:10.544Z,8.64
2022-12-09T00:31:09.228Z,8.60
2022-12-09T00:36:07.847Z,8.69
2022-12-09T00:41:06.056Z,8.70
2022-12-09T00:46:03.616Z,8.66
2022-12-09T00:51:00.893Z,8.75
2022-12-09T00:55:58.195Z,8.72
2022-12-09T01:00:55.271Z,8.62
2022-12-09T01:05:54.510Z,8.66
2022-12-09T01:10:51.379Z,8.54
2022-12-09T01:15:49.254Z,8.54
2022-12-09T01:20:46.152Z,8.59
2022-12-09T01:25:43.121Z,8.48
2022-12-09T01:30:43.045Z,8.64
2022-12-09T01:35:41.090Z,8.65
2022-12-09T01:40:37.627Z,8.73
2022-12-09T01:45:38.599Z,8.73
2022-12-09T01:50:36.151Z,8.69
2022-12-09T01:55:35.057Z,8.26
2022-12-09T02:00:32.473Z,8.24
2022-12-09T02:05:30.978Z,7.86
2022-12-09T02:10:30.493Z,7.77
2022-12-09T02:15:41.771Z,7.74
2022-12-09T02:20:41.711Z,7.87
2022-12-09T02:25:43.847Z,7.79
2022-12-09T02:30:49.730Z,7.52
2022-12-09T02:35:52.498Z,7.63
2022-12-09T02:40:54.314Z,7.74
2022-12-09T02:45:57.502Z,7.73
2022-12-09T02:50:58.223Z,7.91
2022-12-09T02:55:56.379Z,8.12
2022-12-09T03:00:55.040Z,8.32
2022-12-09T03:05:55.734Z,8.39
2022-12-09T03:10:56.660Z,8.44
2022-12-09T03:15:58.283Z,8.30
2022-12-09T03:20:57.334Z,7.96
2022-12-09T03:25:56.020Z,7.83
2022-12-09T03:30:53.945Z,7.99
2022-12-09T03:35:53.585Z,8.14
2022-12-09T03:40:52.583Z,8.21
2022-12-09T03:45:51.435Z,8.33
2022-12-09T03:50:52.127Z,8.21
2022-12-09T03:55:54.341Z,7.97
2022-12-09T04:00:55.219Z,7.64
2022-12-09T04:05:51.983Z,7.67
2022-12-09T04:10:50.288Z,7.43
2022-12-09T04:15:49.372Z,7.35
2022-12-09T04:20:46.961Z,7.37
2022-12-09T04:25:44.109Z,7.33
2022-12-09T04:30:47.207Z,7.36
2022-12-09T04:35:46.244Z,7.52
2022-12-09T04:40:43.628Z,7.42
2022-12-09T04:45:40.660Z,7.22
2022-12-09T04:50:39.833Z,7.11
2022-12-09T04:55:37.117Z,7.21
2022-12-09T05:00:47.746Z,7.16
2022-12-09T05:05:45.850Z,7.19
2022-12-09T05:11:08.128Z,7.15
2022-12-09T05:16:12.181Z,7.11
2022-12-09T05:21:14.368Z,7.15
2022-12-09T05:26:12.468Z,7.13
2022-12-09T05:31:11.445Z,7.16
2022-12-09T05:36:11.814Z,7.25
2022-12-09T05:41:09.436Z,6.94
2022-12-09T05:46:07.793Z,7.04
2022-12-09T05:51:08.685Z,6.97
2022-12-09T05:56:06.188Z,7.15
2022-12-09T06:01:07.283Z,7.09
2022-12-09T06:06:09.215Z,6.73
2022-12-09T06:11:10.406Z,6.91
2022-12-09T06:16:10.790Z,6.99
2022-12-09T06:21:09.491Z,6.98
2022-12-09T06:26:14.887Z,6.95
2022-12-09T06:31:14.193Z,6.92
2022-12-09T06:36:12.039Z,6.97
2022-12-09T06:41:11.858Z,6.89
2022-12-09T06:46:13.705Z,7.06
2022-12-09T06:56:42.638Z,6.96
2022-12-09T07:01:44.875Z,6.98
2022-12-09T07:06:47.963Z,7.16
2022-12-09T07:11:50.869Z,7.06
2022-12-09T07:16:54.584Z,7.14
2022-12-09T07:21:54.457Z,6.74
2022-12-09T07:26:54.512Z,6.76
2022-12-09T07:32:06.279Z,6.48
2022-12-09T07:37:03.979Z,6.73
2022-12-09T07:42:03.070Z,6.60
2022-12-09T07:47:06.198Z,6.77
2022-12-09T07:52:05.806Z,6.85
2022-12-09T07:57:25.681Z,7.01
2022-12-09T08:02:25.165Z,7.15
2022-12-09T08:07:24.865Z,7.01
2022-12-09T08:12:22.004Z,7.15
2022-12-09T08:17:20.630Z,7.47
2022-12-09T08:22:18.480Z,7.26
2022-12-09T08:27:16.377Z,7.71
2022-12-09T08:32:23.511Z,7.57
2022-12-09T08:37:29.213Z,7.81
2022-12-09T08:42:29.844Z,7.69
2022-12-09T08:47:29.533Z,7.73
2022-12-09T08:52:32.262Z,7.28
2022-12-09T08:57:33.848Z,7.46
2022-12-09T09:02:33.624Z,7.38
2022-12-09T09:07:33.050Z,7.56
2022-12-09T09:12:37.347Z,7.78
2022-12-09T09:17:37.672Z,8.00
2022-12-09T09:22:44.377Z,8.11
2022-12-09T09:27:43.471Z,8.14
2022-12-09T09:32:40.603Z,8.18
2022-12-09T09:37:38.976Z,7.99
2022-12-09T09:42:40.965Z,7.80
2022-12-09T09:47:43.506Z,8.01
2022-12-09T09:52:56.176Z,8.09
2022-12-09T09:58:02.205Z,8.26
2022-12-09T10:03:01.121Z,8.36
2022-12-09T10:08:16.509Z,8.41
2022-12-09T10:13:26.406Z,8.52
2022-12-09T10:18:29.121Z,8.54
2022-12-09T10:23:36.030Z,8.46
2022-12-09T10:28:48.422Z,8.49
2022-12-09T10:33:46.311Z,8.52
2022-12-09T10:38:51.646Z,8.42
2022-12-09T10:43:49.282Z,8.40
2022-12-09T10:49:08.243Z,8.39
2022-12-09T10:54:21.663Z,8.54
2022-12-09T10:59:25.788Z,8.34
2022-12-09T11:04:37.502Z,8.34
2022-12-09T11:10:10.936Z,8.48
2022-12-09T11:15:25.572Z,8.33
2022-12-09T11:20:26.692Z,8.30
2022-12-09T11:25:29.631Z,7.91
2022-12-09T11:30:32.667Z,7.83
2022-12-09T11:35:32.138Z,7.18
2022-12-09T11:40:33.193Z,7.56
2022-12-09T11:45:42.103Z,7.87
2022-12-09T11:50:46.473Z,7.69
2022-12-09T11:55:48.400Z,8.04
2022-12-09T12:06:56.573Z,8.15
2022-12-09T12:11:58.559Z,8.23
2022-12-09T12:17:02.014Z,8.24
2022-12-09T12:22:15.936Z,8.07
2022-12-09T12:27:31.032Z,7.95
2022-12-09T12:33:17.855Z,8.10
2022-12-09T12:38:05.182Z,8.29
2022-12-09T12:43:33.479Z,8.21
2022-12-09T12:48:44.409Z,8.39
2022-12-09T12:53:47.616Z,8.31
2022-12-09T12:59:01.044Z,8.08
2022-12-09T13:04:10.090Z,8.10
2022-12-09T13:09:11.967Z,7.74
2022-12-09T13:14:17.828Z,7.43
2022-12-09T13:19:20.828Z,7.76
2022-12-09T13:36:46.517Z,7.60
2022-12-09T13:42:02.875Z,7.61
2022-12-09T13:47:23.099Z,7.62
2022-12-09T13:52:39.494Z,7.69
2022-12-09T13:58:08.737Z,7.80
2022-12-09T14:09:53.150Z,7.54
2022-12-09T14:14:51.132Z,7.76
2022-12-09T14:19:54.285Z,7.63
2022-12-09T14:24:59.965Z,7.81
2022-12-09T14:30:06.159Z,7.74
2022-12-09T14:35:16.392Z,7.92
2022-12-09T14:40:39.757Z,8.18
2022-12-09T14:45:45.948Z,7.91
2022-12-09T14:50:43.319Z,8.15
2022-12-09T14:55:43.103Z,8.25
2022-12-09T15:00:43.910Z,8.22
2022-12-09T15:05:56.991Z,8.25
2022-12-09T15:10:53.906Z,8.21
2022-12-09T15:15:51.717Z,8.27
2022-12-09T15:20:52.539Z,8.26
2022-12-09T15:25:51.034Z,8.39
2022-12-09T15:30:56.603Z,8.32
2022-12-09T15:35:56.655Z,8.28
2022-12-09T15:41:11.498Z,8.34
2022-12-09T15:46:08.569Z,8.23
2022-12-09T15:51:12.318Z,8.32
2022-12-09T15:56:11.918Z,8.01
2022-12-09T16:01:09.224Z,8.12
2022-12-09T16:06:08.619Z,8.16
2022-12-09T16:11:05.760Z,8.26
2022-12-09T16:16:22.850Z,8.30
2022-12-09T16:21:25.856Z,8.41
2022-12-09T16:26:24.912Z,8.33
2022-12-09T16:31:22.110Z,8.37
2022-12-09T16:36:25.885Z,8.19
2022-12-09T16:41:43.224Z,8.34
2022-12-09T16:46:40.985Z,8.25
2022-12-09T16:51:39.282Z,8.20
2022-12-09T16:56:36.401Z,8.15
2022-12-09T17:01:36.317Z,7.84
2022-12-09T17:06:33.581Z,7.97
2022-12-09T17:11:31.313Z,7.72
2022-12-09T17:16:34.939Z,8.03
2022-12-09T17:21:35.400Z,8.12
2022-12-09T17:26:32.875Z,8.10
2022-12-09T17:31:29.981Z,8.16
2022-12-09T17:36:26.748Z,7.80
2022-12-09T17:41:23.787Z,7.84
2022-12-09T17:46:21.406Z,7.79
2022-12-09T17:51:18.567Z,7.79
2022-12-09T17:56:16.441Z,8.06
2022-12-09T18:01:17.740Z,8.20
2022-12-09T18:06:18.155Z,8.31
2022-12-09T18:11:14.952Z,8.41
2022-12-09T18:16:15.328Z,8.47
2022-12-09T18:21:15.880Z,8.48
2022-12-09T18:26:15.888Z,8.45
2022-12-09T18:31:14.215Z,8.39
2022-12-09T18:36:12.918Z,8.40
2022-12-09T18:41:10.806Z,8.34
2022-12-09T18:46:10.356Z,8.38
2022-12-09T18:51:13.508Z,8.39
2022-12-09T18:56:10.681Z,8.40
2022-12-09T19:01:15.526Z,8.34
2022-12-09T19:06:20.000Z,8.42
2022-12-09T19:11:17.069Z,8.45
2022-12-09T19:16:14.561Z,8.54
2022-12-09T19:21:12.962Z,8.52
2022-12-09T19:26:13.144Z,8.57
2022-12-09T19:31:14.122Z,8.60
2022-12-09T19:36:12.111Z,8.67
2022-12-09T19:41:09.171Z,8.68
2022-12-09T19:46:06.999Z,8.74
2022-12-09T19:51:04.448Z,8.73
2022-12-09T19:56:02.758Z,8.73
2022-12-09T20:00:59.511Z,8.72
2022-12-09T20:05:56.177Z,8.67
2022-12-09T20:10:52.726Z,8.45
2022-12-09T20:15:50.374Z,8.52
2022-12-09T20:20:49.011Z,8.32
2022-12-09T20:25:46.049Z,7.92
2022-12-09T20:30:42.906Z,7.89
2022-12-09T20:35:40.195Z,7.92
2022-12-09T20:40:40.677Z,8.08
2022-12-09T20:45:38.237Z,7.99
2022-12-09T20:50:38.614Z,7.67
2022-12-09T20:55:36.292Z,7.57
2022-12-09T21:00:33.006Z,7.51
2022-12-09T21:05:29.657Z,7.41
2022-12-09T21:10:26.402Z,7.61
2022-12-09T21:15:26.779Z,7.29
2022-12-09T21:20:23.668Z,7.49
2022-12-09T21:25:20.465Z,7.73
2022-12-09T21:30:17.513Z,7.46
2022-12-09T21:35:17.021Z,7.47
2022-12-09T21:40:13.768Z,7.66
2022-12-09T21:45:10.587Z,7.65
2022-12-09T21:50:08.094Z,7.59
2022-12-09T21:55:06.023Z,7.35
2022-12-09T22:00:02.723Z,7.49
2022-12-09T22:05:02.194Z,7.53
2022-12-09T22:09:58.872Z,7.61
2022-12-09T22:14:56.207Z,7.60
2022-12-09T22:20:13.845Z,7.88
2022-12-09T22:25:10.840Z,8.06
2022-12-09T22:30:09.457Z,7.91
2022-12-09T22:35:06.879Z,8.12
2022-12-09T22:40:03.810Z,8.18
2022-12-09T22:45:00.595Z,8.24
2022-12-09T22:49:57.966Z,8.24
2022-12-09T22:54:54.537Z,8.13
2022-12-09T22:59:51.297Z,8.19
2022-12-09T23:04:48.356Z,8.28
2022-12-09T23:09:46.217Z,8.21
2022-12-09T23:14:42.908Z,8.28
2022-12-09T23:19:39.685Z,8.35
2022-12-09T23:24:38.905Z,7.80
2022-12-09T23:29:39.111Z,7.94
2022-12-09T23:34:35.977Z,8.11
2022-12-09T23:39:32.792Z,8.19
2022-12-09T23:44:29.545Z,8.18
2022-12-09T23:49:27.152Z,8.18
2022-12-09T23:54:23.910Z,8.06
2022-12-09T23:59:21.580Z,8.06
